This is the latest recevied weather packets stored in our database for station/object N0EDB-13. If no packets are shown the sender has not sent any weather packets the latest 10 day(s).
| Time | Temp. | Humidity | Pressure | Rain* | Wind** | Luminosity | Snow |
|---|---|---|---|---|---|---|---|
| 1777911247 | 18.89° C | 30% | 1468 hPa | 0 mm | - | 235 W/m² | - |
| 1777910946 | 18.89° C | 31% | 1468.5 hPa | 0 mm | - | 227 W/m² | - |
| 1777910646 | 18.89° C | 30% | 1468.6 hPa | 0 mm | - | 228 W/m² | - |
| 1777910346 | 18.33° C | 31% | 1469 hPa | 0 mm | - | 224 W/m² | - |
| 1777910045 | 18.33° C | 31% | 1469.4 hPa | 0 mm | - | 217 W/m² | - |
| 1777909745 | 17.78° C | 31% | 1470.1 hPa | 0 mm | - | 214 W/m² | - |
| 1777909445 | 17.78° C | 32% | 1471.2 hPa | 0 mm | - | 212 W/m² | - |
| 1777909144 | 17.22° C | 33% | 1472.7 hPa | 0 mm | - | 212 W/m² | - |
| 1777908843 | 16.67° C | 36% | 1474.6 hPa | 0 mm | - | 204 W/m² | - |
| 1777908542 | 15.56° C | 36% | 1477 hPa | 0 mm | - | 201 W/m² | - |
| 1777908241 | 15° C | 39% | 1479.2 hPa | 0 mm | - | 196 W/m² | - |
| 1777907941 | 14.44° C | 40% | 1480.7 hPa | 0 mm | - | 191 W/m² | - |
| 1777907640 | 13.89° C | 41% | 1482.1 hPa | 0 mm | - | 195 W/m² | - |
| 1777907340 | 13.33° C | 42% | 1483.1 hPa | 0 mm | - | 204 W/m² | - |
| 1777907039 | 13.33° C | 42% | 1483.6 hPa | 0 mm | - | 189 W/m² | - |
| 1777906738 | 12.78° C | 43% | 1484.4 hPa | 0 mm | - | 174 W/m² | - |
| 1777906438 | 12.78° C | 43% | 1485.1 hPa | 0 mm | - | 173 W/m² | - |
| 1777906136 | 12.78° C | 43% | 1485.6 hPa | 0 mm | - | 174 W/m² | - |
| 1777905836 | 12.22° C | 46% | 1486 hPa | 0 mm | - | 187 W/m² | - |
| 1777905535 | 12.22° C | 46% | 1486.5 hPa | 0 mm | - | 202 W/m² | - |
| 1777905231 | 12.22° C | 47% | 1487.3 hPa | 0 mm | - | 202 W/m² | - |
| 1777904931 | 11.67° C | 48% | 1488.1 hPa | 0 mm | - | 194 W/m² | - |
| 1777904630 | 11.67° C | 48% | 1489 hPa | 0 mm | - | 188 W/m² | - |
| 1777904329 | 11.11° C | 49% | 1489.8 hPa | 0 mm | - | 179 W/m² | - |
| 1777904028 | 10.56° C | 48% | 1490.8 hPa | 0 mm | - | 162 W/m² | - |
* Rain latest hour (hover to see other rain measurements)
** Current wind speed in m/s (hover to see current wind gust speed)